Liberty, Illinois
Current Conditions -  °F | °C
As of 8:54 PM on Saturday 22 Nov 2014 (Local Time) from KUIN Reporting Station
Overcast Overcast  
Wind Chill: 54°   Ceiling: 1200
Heat Index: 54°   Visibility: 10mi
Dew Point: 49°   Wind: 16mph
Humidity: 83%   Direction: 180°S
Pressure: 29.82"   Gusts: 23mph
Location:  39.88°N, 91.11°W
Report Text: KUIN 230254Z AUTO 18014G20KT 10SM OVC012 12/09 A2982 RMK AO2 SLP099 T01220094 56012
Loading
Personal Weather Stations






























Interactive Weather Map New forecast layout! Learn more

10-Day Weather Forecast

Advertisements
Track Severe Weather on mobile